Hit Tracker is now ESPN Home Run Tracker! Hit Tracker founder Greg Rybarczyk is now collaborating with the ESPN Stats & Information Group to continue tracking all MLB home runs, and helping baseball fans know "How Far It Really Went!™" Please credit any information on this site to ESPN Stats & Information Group. For more information and analysis on home runs, please contact founder Greg Rybarczyk. E-Mail ESPN Home Run Tracker
Main Page | Ballparks | Park Overlays | Glossary | Highlight Homers | Feedback | Bio | 3 Types of HR's | AAA Home Run Derby Last Updated: May 23, 2016, 8:16 am PST
If you want to know "How Far It Really Went!", then you've come to the right place! Welcome to the ESPN Home Run Tracker, where you can find accurate, transparently verifiable distances for every home run hit in MLB games. Please also check out the ESPN MLB Scoreboard throughout the 2016 season! Contact us at grybar@hittrackeronline.com.
Season:
Ballpark detail for Fenway Park
Ballpark # of Home Runs HR per game Avg.
True
Distance
Avg.
Speed
Off
Bat
Avg.
Std.
Dist.
Fenway Park 54 2.16 392.5 102.1 387.4

Scatter Plot of Home Runs Fenway Park
 Overlay Ballpark:
Without range rings   With range rings

2016 Season Home Runs for Fenway Park
Click headers to sort
Date Video Path Hitter Hitter
Team
Pitcher Pitcher
Team
 ^
INN Ballpark Type/
Luck
True
Dist.
Speed
Off
Bat
Elev.
Angle
Horiz.
Angle
Apex Impact Due To: Std.
Dist.
#
Parks
Wind Temp. Alt.
04/16/16 Video View Bogaerts, Xander BOS Estrada, Marco TOR 3 Fenway Park JE 375 99.0 28.0 109.4 79 3 -1 0 374 16
04/17/16 Video View Shaw, Travis BOS Osuna, Roberto TOR 9 Fenway Park JE 385 103.8 24.8 69.7 70 1 -1 0 384 25
04/20/16 Video View Betts, Mookie BOS Archer, Chris TB 2 Fenway Park JE 380 104.3 25.6 116.7 68 0 -1 0 380 30
04/21/16 Video View Pedroia, Dustin BOS Odorizzi, Jake TB 1 Fenway Park JE 374 102.3 25.6 113.1 68 -1 1 0 375 21
04/21/16 Video View Betts, Mookie BOS Farquhar, Danny TB 6 Fenway Park ND 395 100.8 35.6 108.0 124 15 3 0 377 25
05/09/16 Video View Holt, Brock BOS Rodriguez, Fernando OAK 5 Fenway Park JE 383 104.9 23.2 72.3 61 1 0 0 383 26
05/09/16 Video View Bradley Jr., Jackie BOS Axford, John OAK 6 Fenway Park JE/L 382 106.3 24.7 61.8 64 1 -1 0 382 29
05/10/16 Video View Betts, Mookie BOS Manaea, Sean OAK 1 Fenway Park JE 380 104.2 24.8 114.2 65 1 0 0 379 23
05/10/16 Video View Ramirez, Hanley BOS Manaea, Sean OAK 1 Fenway Park ND 460 113.2 22.8 96.8 82 1 0 0 459 30
05/10/16 Video View Shaw, Travis BOS Coulombe, Daniel OAK 5 Fenway Park JE 394 102.2 26.2 105.1 77 1 0 0 393 26
05/11/16 Video View Bradley Jr., Jackie BOS Surkamp, Eric OAK 2 Fenway Park PL 409 105.5 23.8 79.2 74 0 0 0 409 28
05/11/16 Video View Pedroia, Dustin BOS Dull, Ryan OAK 4 Fenway Park JE 383 102.4 24.3 105.3 68 0 0 0 383 12
05/11/16 Video View Bradley Jr., Jackie BOS Neal, Zach OAK 8 Fenway Park PL 403 105.0 24.9 75.4 76 0 0 0 403 29
04/29/16 Video View Ortiz, David BOS Betances, Dellin NYY 8 Fenway Park JE 396 101.6 25.6 99.6 80 0 -1 0 398 21
04/30/16 Video View Ortiz, David BOS Barbato, Johnny NYY 7 Fenway Park PL 423 105.3 30.5 73.8 110 11 -5 0 416 30
05/01/16 Video View Shaw, Travis BOS Eovaldi, Nathan NYY 5 Fenway Park PL 379 104.4 27.3 57.0 73 1 -3 0 380 30
05/01/16 Video View Vazquez, Christian BOS Betances, Dellin NYY 7 Fenway Park ND 395 103.3 29.4 110.6 95 0 -4 0 399 30
05/12/16 Video View Bogaerts, Xander BOS Keuchel, Dallas HOU 1 Fenway Park PL 380 99.2 29.6 111.3 85 3 0 0 376 23
05/12/16 Video View Betts, Mookie BOS Keuchel, Dallas HOU 6 Fenway Park JE 383 101.5 25.5 105.5 77 -2 0 0 385 23
05/13/16 Video View Shaw, Travis BOS Feldman, Scott HOU 6 Fenway Park PL 439 108.4 23.4 87.6 87 -1 -1 0 441 29
05/14/16 Video View Ortiz, David BOS Mchugh, Collin HOU 3 Fenway Park ND 429 106.0 26.5 81.2 92 0 1 0 428 30
05/15/16 Video View Bogaerts, Xander BOS Devenski, Chris HOU 2 Fenway Park ND 434 105.6 31.0 104.8 118 17 -2 0 418 30
05/20/16 Video View Bradley Jr., Jackie BOS Kluber, Corey CLE 2 Fenway Park JE 420 103.0 26.1 88.5 87 2 0 0 418 25
05/21/16 Video View Betts, Mookie BOS Bauer, Trevor CLE 4 Fenway Park JE/L 341 89.5 41.4 118.4 108 43 -1 0 299 0
05/21/16 Video View Betts, Mookie BOS Chamberlain, Joba CLE 7 Fenway Park JE 344 92.9 35.3 121.6 92 11 -1 0 334 1
05/22/16 Video View Ortiz, David BOS Salazar, Danny CLE 5 Fenway Park PL 411 112.4 22.2 69.7 64 0 0 0 411 30
04/17/16 Video View Bautista, Jose TOR Wright, Steven BOS 1 Fenway Park JE 343 98.0 39.9 115.6 134 10 -3 0 336 6
04/12/16 Video View Hardy, J.J. BAL Buchholz, Clay BOS 4 Fenway Park JE/L 327 95.5 26.2 56.4 56 2 -1 0 327 2
04/12/16 Video View Trumbo, Mark BAL Buchholz, Clay BOS 6 Fenway Park ND 415 105.2 27.1 101.7 99 -2 -3 0 420 30
04/12/16 Video View Hardy, J.J. BAL Ross, Robbie BOS 7 Fenway Park JE/L 339 92.0 35.4 60.9 92 11 -4 0 331 2
04/13/16 Video View Davis, Chris BAL Kelly, Joe BOS 3 Fenway Park JE 360 96.7 29.2 112.7 78 3 -3 0 360 11
04/15/16 Video View Encarnacion, Edwin TOR Porcello, Rick BOS 2 Fenway Park PL 364 100.4 29.2 119.4 82 -4 -2 0 370 30
04/15/16 Video View Encarnacion, Edwin TOR Porcello, Rick BOS 7 Fenway Park JE 360 99.1 27.9 118.9 71 2 -1 0 360 18
04/11/16 Video View Trumbo, Mark BAL Price, David BOS 3 Fenway Park PL 428 105.1 26.5 78.0 81 11 -1 0 417 28
04/11/16 Video View Davis, Chris BAL Kimbrel, Craig BOS 9 Fenway Park ND 449 105.5 30.3 89.9 112 16 -2 0 434 29
04/19/16 Video View Kiermaier, Kevin TB Barnes, Matt BOS 10 Fenway Park PL 368 100.2 32.1 60.4 96 -1 -3 0 373 30
04/20/16 Video View Dickerson, Corey TB Porcello, Rick BOS 6 Fenway Park PL 426 107.4 24.2 80.2 78 1 -2 0 425 29
04/21/16 Video View Longoria, Evan TB Price, David BOS 3 Fenway Park JE 410 101.1 32.8 96.0 120 6 1 0 402 18
04/21/16 Video View Casali, Curt TB Price, David BOS 4 Fenway Park JE 386 103.1 25.7 111.3 69 2 1 0 383 25
04/27/16 Video View Freeman, Freddie ATL Layne, Tommy BOS 8 Fenway Park PL 420 106.6 24.6 79.3 78 1 -2 0 421 29
04/29/16 Video View Rodriguez, Alex NYY Owens, Henry BOS 2 Fenway Park PL 427 104.9 27.5 96.2 100 2 -3 0 428 29
05/01/16 Video View Rodriguez, Alex NYY Price, David BOS 3 Fenway Park PL 430 105.6 26.7 94.3 100 0 -3 0 433 29
05/09/16 Video View Davis, Khris OAK Buchholz, Clay BOS 3 Fenway Park JE/L 356 97.4 39.9 107.6 141 20 -4 0 339 0
05/13/16 Video View Springer, George HOU Barnes, Matt BOS 6 Fenway Park JE 401 104.5 24.5 103.7 72 1 -1 0 401 29
05/14/16 Video View Correa, Carlos HOU Buchholz, Clay BOS 1 Fenway Park ND 454 109.8 29.2 105.3 107 12 2 0 440 30
05/14/16 Video View Springer, George HOU Buchholz, Clay BOS 2 Fenway Park JE 389 100.7 36.4 100.1 139 4 3 0 381 5
05/15/16 Video View Correa, Carlos HOU O'Sullivan, Sean BOS 3 Fenway Park PL 378 95.2 35.5 110.7 105 28 -2 0 351 1
05/15/16 Video View Valbuena, Luis HOU O'Sullivan, Sean BOS 2 Fenway Park ND 442 107.2 30.2 72.2 100 21 -2 0 422 30
05/20/16 Video View Kipnis, Jason CLE Buchholz, Clay BOS 3 Fenway Park ND 414 107.1 31.8 54.4 97 14 0 0 400 30
05/21/16 Video View Santana, Carlos CLE Hembree, Heath BOS 9 Fenway Park JE/L 360 93.4 34.5 107.2 100 11 -1 0 350 1
04/12/16 Video View Ortiz, David BOS Wright, Mike BAL 1 Fenway Park PL 388 104.4 32.9 73.1 128 -11 -4 0 405 30
04/11/16 Video View Betts, Mookie BOS Britton, Zach BAL 9 Fenway Park JE 386 93.8 35.0 107.3 94 37 -2 0 350 0
04/27/16 Video View Pedroia, Dustin BOS Norris, Bud ATL 2 Fenway Park PL 336 90.4 32.5 49.5 67 24 -1 0 315 1
04/27/16 Video View Pedroia, Dustin BOS Grilli, Jason ATL 8 Fenway Park JE 363 98.6 27.8 116.4 71 4 -2 0 360 11


About HitTracker | Contact Us
© 2006-2016 HitTrackerOnline